Terminal Aerodrome Forecast
Issued by NWS

Home | Current Version | Previous Version | Text Only | Print | Product List | Glossary On
Versions: 1 2 3 4 5 6 7 8 9 10 11 12 13 14
000
FTUS45 KRIW 171100
TAFRKS
TAF
KRKS 171124Z 1712/1812 VRB06KT P6SM SCT250
     FM171800 24014G22KT P6SM FEW120 SCT250
     FM180200 20010KT P6SM FEW120 SCT250=

USA.gov is the U.S. government's official web portal to all federal, state and local government web resources and services.